createdAt,value
2017-04-04T00:00:08.183Z,1020.93
2017-04-04T00:00:48.768Z,1020.95
2017-04-04T00:01:29.343Z,1020.93
2017-04-04T00:02:09.916Z,1020.95
2017-04-04T00:02:50.491Z,1020.95
2017-04-04T00:03:31.065Z,1020.89
2017-04-04T00:04:11.664Z,1020.93
2017-04-04T00:04:52.236Z,1020.94
2017-04-04T00:05:32.819Z,1020.92
2017-04-04T00:06:13.427Z,1020.92
2017-04-04T00:06:54.051Z,1020.92
2017-04-04T00:07:34.650Z,1020.91
2017-04-04T00:08:15.234Z,1020.88
2017-04-04T00:08:55.818Z,1020.87
2017-04-04T00:09:36.401Z,1020.92
2017-04-04T00:10:16.982Z,1020.91
2017-04-04T00:10:57.685Z,1020.86
2017-04-04T00:11:38.291Z,1020.89
2017-04-04T00:12:18.883Z,1020.87
2017-04-04T00:12:59.443Z,1020.85
2017-04-04T00:13:40.020Z,1020.84
2017-04-04T00:14:20.597Z,1020.84
2017-04-04T00:15:01.211Z,1020.86
2017-04-04T00:15:41.799Z,1020.84
2017-04-04T00:16:22.380Z,1020.85
2017-04-04T00:17:02.947Z,1020.8
2017-04-04T00:17:43.532Z,1020.79
2017-04-04T00:18:24.146Z,1020.81
2017-04-04T00:19:04.712Z,1020.8
2017-04-04T00:19:45.318Z,1020.79
2017-04-04T00:20:25.918Z,1020.79
2017-04-04T00:21:06.501Z,1020.84
2017-04-04T00:21:47.081Z,1020.85
2017-04-04T00:22:27.681Z,1020.83
2017-04-04T00:23:08.255Z,1020.81
2017-04-04T00:23:48.833Z,1020.84
2017-04-04T00:24:29.525Z,1020.79
2017-04-04T00:25:10.109Z,1020.78
2017-04-04T00:25:50.714Z,1020.79
2017-04-04T00:26:31.302Z,1020.82
2017-04-04T00:27:11.905Z,1020.8
2017-04-04T00:27:52.503Z,1020.79
2017-04-04T00:28:33.076Z,1020.79
2017-04-04T00:29:13.659Z,1020.75
2017-04-04T00:29:55.218Z,1020.76
2017-04-04T00:30:35.786Z,1020.77
2017-04-04T00:31:16.371Z,1020.76
2017-04-04T00:31:56.984Z,1020.75
2017-04-04T00:32:37.553Z,1020.79
2017-04-04T00:33:18.182Z,1020.76
2017-04-04T00:33:58.739Z,1020.78
2017-04-04T00:34:39.323Z,1020.76
2017-04-04T00:35:19.909Z,1020.77
2017-04-04T00:36:00.545Z,1020.76
2017-04-04T00:36:41.108Z,1020.78
2017-04-04T00:37:21.704Z,1020.77
2017-04-04T00:38:02.267Z,1020.75
2017-04-04T00:38:42.880Z,1020.75
2017-04-04T00:39:23.460Z,1020.7
2017-04-04T00:40:04.039Z,1020.7
2017-04-04T00:40:44.619Z,1020.68
2017-04-04T00:41:25.206Z,1020.69
2017-04-04T00:42:05.795Z,1020.68
2017-04-04T00:42:46.379Z,1020.68
2017-04-04T00:43:26.958Z,1020.69
2017-04-04T00:44:07.533Z,1020.68
2017-04-04T00:44:48.128Z,1020.68
2017-04-04T00:45:28.732Z,1020.72
2017-04-04T00:46:09.300Z,1020.66
2017-04-04T00:46:49.909Z,1020.64
2017-04-04T00:47:30.486Z,1020.61
2017-04-04T00:48:11.076Z,1020.58
2017-04-04T00:48:51.663Z,1020.58
2017-04-04T00:49:32.239Z,1020.62
2017-04-04T00:50:12.825Z,1020.61
2017-04-04T00:50:53.394Z,1020.57
2017-04-04T00:51:34.021Z,1020.59
2017-04-04T00:52:14.641Z,1020.58
2017-04-04T00:52:55.202Z,1020.57
2017-04-04T00:53:35.786Z,1020.58
2017-04-04T00:54:16.412Z,1020.57
2017-04-04T00:54:57.006Z,1020.57
2017-04-04T00:55:37.581Z,1020.54
2017-04-04T00:56:18.164Z,1020.57
2017-04-04T00:56:58.739Z,1020.57
2017-04-04T00:57:39.315Z,1020.51
2017-04-04T00:58:19.905Z,1020.55
2017-04-04T00:59:00.481Z,1020.52
2017-04-04T00:59:41.067Z,1020.56
2017-04-04T01:00:21.742Z,1020.59
2017-04-04T01:01:02.389Z,1020.55
2017-04-04T01:01:43.005Z,1020.56
2017-04-04T01:02:23.589Z,1020.53
2017-04-04T01:03:04.219Z,1020.54
2017-04-04T01:03:44.780Z,1020.58
2017-04-04T01:04:25.453Z,1020.52
2017-04-04T01:05:06.110Z,1020.54
2017-04-04T01:05:46.678Z,1020.54
2017-04-04T01:06:27.288Z,1020.53
2017-04-04T01:07:07.861Z,1020.5
2017-04-04T01:07:48.470Z,1020.51
2017-04-04T01:08:29.061Z,1020.5
2017-04-04T01:09:09.654Z,1020.53
2017-04-04T01:09:50.253Z,1020.52
2017-04-04T01:10:30.839Z,1020.53
2017-04-04T01:11:11.429Z,1020.5
2017-04-04T01:11:52.051Z,1020.53
2017-04-04T01:12:32.648Z,1020.49
2017-04-04T01:13:13.282Z,1020.53
2017-04-04T01:13:53.853Z,1020.53
2017-04-04T01:14:34.424Z,1020.58
2017-04-04T01:15:15.149Z,1020.56
2017-04-04T01:15:55.710Z,1020.5
2017-04-04T01:16:36.287Z,1020.53
2017-04-04T01:17:16.953Z,1020.53
2017-04-04T01:17:57.529Z,1020.55
2017-04-04T01:18:38.167Z,1020.52
2017-04-04T01:19:18.750Z,1020.53
2017-04-04T01:19:59.354Z,1020.56
2017-04-04T01:20:39.933Z,1020.57
2017-04-04T01:21:20.549Z,1020.54
2017-04-04T01:22:01.170Z,1020.55
2017-04-04T01:22:41.774Z,1020.54
2017-04-04T01:23:22.361Z,1020.54
2017-04-04T01:24:02.952Z,1020.51
2017-04-04T01:24:43.539Z,1020.54
2017-04-04T01:25:24.136Z,1020.5
2017-04-04T01:26:04.708Z,1020.52
2017-04-04T01:26:45.278Z,1020.51
2017-04-04T01:27:25.875Z,1020.5
2017-04-04T01:28:06.481Z,1020.48
2017-04-04T01:28:47.087Z,1020.48
2017-04-04T01:29:27.686Z,1020.46
2017-04-04T01:30:08.275Z,1020.45
2017-04-04T01:30:48.839Z,1020.46
2017-04-04T01:33:23.822Z,1020.43
2017-04-04T01:34:04.407Z,1020.45
2017-04-04T01:34:44.982Z,1020.43
2017-04-04T01:35:25.589Z,1020.42
2017-04-04T01:36:06.173Z,1020.43
2017-04-04T01:36:46.795Z,1020.45
2017-04-04T01:37:27.506Z,1020.4
2017-04-04T01:38:08.086Z,1020.39
2017-04-04T01:38:48.711Z,1020.44
2017-04-04T01:39:29.294Z,1020.4
2017-04-04T01:40:09.923Z,1020.43
2017-04-04T01:40:50.503Z,1020.43
2017-04-04T01:41:31.066Z,1020.43
2017-04-04T01:42:11.667Z,1020.44
2017-04-04T01:42:52.282Z,1020.42
2017-04-04T01:43:32.881Z,1020.44
2017-04-04T01:44:13.453Z,1020.46
2017-04-04T01:44:54.051Z,1020.46
2017-04-04T01:45:34.634Z,1020.41
2017-04-04T01:46:15.231Z,1020.45
2017-04-04T01:46:55.810Z,1020.41
2017-04-04T01:47:36.426Z,1020.4
2017-04-04T01:48:17.019Z,1020.42
2017-04-04T01:48:57.633Z,1020.39
2017-04-04T01:49:38.271Z,1020.39
2017-04-04T01:50:18.866Z,1020.4
2017-04-04T01:50:59.638Z,1020.39
2017-04-04T01:51:40.223Z,1020.38
2017-04-04T01:52:20.824Z,1020.38
2017-04-04T01:53:01.410Z,1020.36
2017-04-04T01:53:42.011Z,1020.37
2017-04-04T01:54:22.589Z,1020.35
2017-04-04T01:55:03.201Z,1020.4
2017-04-04T01:55:43.792Z,1020.4
2017-04-04T01:56:24.390Z,1020.41
2017-04-04T01:57:04.965Z,1020.39
2017-04-04T01:57:45.564Z,1020.41
2017-04-04T01:58:26.140Z,1020.4
2017-04-04T01:59:06.750Z,1020.37
2017-04-04T01:59:47.336Z,1020.37
2017-04-04T02:00:27.906Z,1020.36
2017-04-04T02:01:08.552Z,1020.4
2017-04-04T02:01:49.162Z,1020.37
2017-04-04T02:04:17.239Z,1020.39
2017-04-04T02:04:57.815Z,1020.39
2017-04-04T02:05:38.394Z,1020.4
2017-04-04T02:06:18.983Z,1020.38
2017-04-04T02:06:59.550Z,1020.36
2017-04-04T02:07:40.121Z,1020.38
2017-04-04T02:08:20.698Z,1020.35
2017-04-04T02:09:01.270Z,1020.39
2017-04-04T02:09:41.873Z,1020.38
2017-04-04T02:10:22.432Z,1020.42
2017-04-04T02:11:03.035Z,1020.4
2017-04-04T02:11:43.603Z,1020.36
2017-04-04T02:12:24.157Z,1020.37
2017-04-04T02:13:04.757Z,1020.4
2017-04-04T02:13:45.327Z,1020.35
2017-04-04T02:14:25.914Z,1020.34
2017-04-04T02:15:06.527Z,1020.37
2017-04-04T02:15:47.090Z,1020.34
2017-04-04T02:16:27.665Z,1020.32
2017-04-04T02:17:08.228Z,1020.37
2017-04-04T02:17:48.822Z,1020.32
2017-04-04T02:18:29.384Z,1020.33
2017-04-04T02:19:09.951Z,1020.33
2017-04-04T02:19:50.522Z,1020.31
2017-04-04T02:20:31.100Z,1020.31
2017-04-04T02:21:11.681Z,1020.32
2017-04-04T02:21:52.263Z,1020.31
2017-04-04T02:22:32.831Z,1020.3
2017-04-04T02:23:13.404Z,1020.26
2017-04-04T02:23:53.997Z,1020.31
2017-04-04T02:24:34.576Z,1020.29
2017-04-04T02:25:15.145Z,1020.31
2017-04-04T02:25:55.709Z,1020.29
2017-04-04T02:26:36.282Z,1020.3
2017-04-04T02:27:16.855Z,1020.31
2017-04-04T02:27:57.412Z,1020.3
2017-04-04T02:28:38.006Z,1020.31
2017-04-04T02:29:18.589Z,1020.28
2017-04-04T02:29:59.177Z,1020.33
2017-04-04T02:30:39.753Z,1020.32
2017-04-04T02:31:20.327Z,1020.32
2017-04-04T02:32:00.909Z,1020.33
2017-04-04T02:32:41.484Z,1020.34
2017-04-04T02:33:22.056Z,1020.33
2017-04-04T02:34:02.622Z,1020.31
2017-04-04T02:34:43.199Z,1020.33
2017-04-04T02:35:23.769Z,1020.33
2017-04-04T02:36:04.344Z,1020.34
2017-04-04T02:36:44.921Z,1020.35
2017-04-04T02:37:25.494Z,1020.38
2017-04-04T02:38:06.077Z,1020.33
2017-04-04T02:38:46.646Z,1020.3
2017-04-04T02:39:27.221Z,1020.32
2017-04-04T02:40:07.818Z,1020.26
2017-04-04T02:40:48.436Z,1020.28
2017-04-04T02:41:29.002Z,1020.31
2017-04-04T02:42:09.581Z,1020.29
2017-04-04T02:42:50.151Z,1020.26
2017-04-04T02:43:30.727Z,1020.27
2017-04-04T02:44:11.300Z,1020.27
2017-04-04T02:44:51.886Z,1020.32
2017-04-04T02:45:32.450Z,1020.28
2017-04-04T02:46:13.031Z,1020.28
2017-04-04T02:46:53.636Z,1020.28
2017-04-04T02:47:34.215Z,1020.26
2017-04-04T02:48:14.797Z,1020.24
2017-04-04T02:48:55.359Z,1020.27
2017-04-04T02:49:35.964Z,1020.26
2017-04-04T02:50:16.547Z,1020.25
2017-04-04T02:50:57.119Z,1020.25
2017-04-04T02:51:37.690Z,1020.26
2017-04-04T02:52:18.289Z,1020.22
2017-04-04T02:52:58.882Z,1020.23
2017-04-04T02:53:39.460Z,1020.23
2017-04-04T02:54:20.030Z,1020.24
2017-04-04T02:55:00.599Z,1020.27
2017-04-04T02:55:41.173Z,1020.24
2017-04-04T02:56:21.746Z,1020.21
2017-04-04T02:57:02.324Z,1020.24
2017-04-04T02:57:42.903Z,1020.25
2017-04-04T02:58:23.481Z,1020.22
2017-04-04T02:59:04.056Z,1020.25
2017-04-04T02:59:44.639Z,1020.19
2017-04-04T03:00:25.219Z,1020.21
2017-04-04T03:01:05.795Z,1020.21
2017-04-04T03:01:46.410Z,1020.21
2017-04-04T03:02:26.988Z,1020.19
2017-04-04T03:03:07.583Z,1020.21
2017-04-04T03:03:48.155Z,1020.2
2017-04-04T03:04:28.742Z,1020.14
2017-04-04T03:05:09.331Z,1020.21
2017-04-04T03:05:49.883Z,1020.17
2017-04-04T03:06:30.460Z,1020.21
2017-04-04T03:07:11.065Z,1020.22
2017-04-04T03:07:51.642Z,1020.21
2017-04-04T03:08:32.221Z,1020.19
2017-04-04T03:09:12.798Z,1020.2
2017-04-04T03:09:53.383Z,1020.18
2017-04-04T03:10:33.980Z,1020.21
2017-04-04T03:11:14.566Z,1020.22
2017-04-04T03:11:55.142Z,1020.25
2017-04-04T03:12:35.740Z,1020.2
2017-04-04T03:13:16.335Z,1020.19
2017-04-04T03:13:56.905Z,1020.21
2017-04-04T03:14:37.476Z,1020.21
2017-04-04T03:15:18.072Z,1020.2
2017-04-04T03:15:58.643Z,1020.16
2017-04-04T03:16:39.219Z,1020.19
2017-04-04T03:17:19.804Z,1020.17
2017-04-04T03:18:00.376Z,1020.17
2017-04-04T03:18:40.936Z,1020.14
2017-04-04T03:19:21.517Z,1020.17
2017-04-04T03:20:02.102Z,1020.16
2017-04-04T03:20:42.691Z,1020.16
2017-04-04T03:21:23.261Z,1020.14
2017-04-04T03:22:03.837Z,1020.11
2017-04-04T03:22:44.414Z,1020.14
2017-04-04T03:23:24.982Z,1020.12
2017-04-04T03:24:05.576Z,1020.14
2017-04-04T03:24:46.141Z,1020.1
2017-04-04T03:25:26.715Z,1020.12
2017-04-04T03:26:07.311Z,1020.15
2017-04-04T03:26:47.895Z,1020.16
2017-04-04T03:27:28.474Z,1020.17
2017-04-04T03:28:09.057Z,1020.2
2017-04-04T03:28:49.645Z,1020.23
2017-04-04T03:29:30.217Z,1020.2
2017-04-04T03:30:10.817Z,1020.2
2017-04-04T03:30:51.404Z,1020.18
2017-04-04T03:31:32.012Z,1020.27
2017-04-04T03:32:12.584Z,1020.21
2017-04-04T03:32:53.177Z,1020.21
2017-04-04T03:33:33.773Z,1020.18
2017-04-04T03:34:14.341Z,1020.2
2017-04-04T03:34:54.950Z,1020.18
2017-04-04T03:35:35.524Z,1020.18
2017-04-04T03:36:16.105Z,1020.19
2017-04-04T03:36:56.688Z,1020.18
2017-04-04T03:37:37.267Z,1020.19
2017-04-04T03:38:17.872Z,1020.22
2017-04-04T03:38:58.453Z,1020.24
2017-04-04T03:39:39.028Z,1020.28
2017-04-04T03:40:19.598Z,1020.27
2017-04-04T03:41:00.183Z,1020.3
2017-04-04T03:41:40.757Z,1020.23
2017-04-04T03:42:21.328Z,1020.31
2017-04-04T03:43:01.909Z,1020.27
2017-04-04T03:43:42.500Z,1020.25
2017-04-04T03:44:23.071Z,1020.3
2017-04-04T03:45:03.643Z,1020.31
2017-04-04T03:45:44.231Z,1020.3
2017-04-04T03:46:24.807Z,1020.29
2017-04-04T03:47:05.393Z,1020.27
2017-04-04T03:47:45.970Z,1020.29
2017-04-04T03:48:26.533Z,1020.3
2017-04-04T03:49:07.136Z,1020.29
2017-04-04T03:49:47.711Z,1020.33
2017-04-04T03:50:28.299Z,1020.3
2017-04-04T03:51:08.883Z,1020.33
2017-04-04T03:51:49.462Z,1020.28
2017-04-04T03:52:30.041Z,1020.3
2017-04-04T03:53:10.613Z,1020.31
2017-04-04T03:53:51.178Z,1020.33
2017-04-04T03:54:31.751Z,1020.35
2017-04-04T03:55:12.344Z,1020.3
2017-04-04T03:55:52.915Z,1020.32
2017-04-04T03:56:33.508Z,1020.34
2017-04-04T03:57:14.096Z,1020.33
2017-04-04T03:57:54.681Z,1020.35
2017-04-04T03:58:35.269Z,1020.38
2017-04-04T03:59:15.854Z,1020.37
2017-04-04T03:59:56.432Z,1020.39
2017-04-04T04:00:37.015Z,1020.37
2017-04-04T04:01:17.608Z,1020.37
2017-04-04T04:01:58.182Z,1020.38
2017-04-04T04:02:38.772Z,1020.38
2017-04-04T04:03:19.369Z,1020.39
2017-04-04T04:04:00.008Z,1020.38
2017-04-04T04:04:40.650Z,1020.41
2017-04-04T04:05:21.185Z,1020.35
2017-04-04T04:06:01.786Z,1020.35
2017-04-04T04:06:42.357Z,1020.34
2017-04-04T04:07:22.934Z,1020.35
2017-04-04T04:08:03.499Z,1020.33
2017-04-04T04:08:44.094Z,1020.34
2017-04-04T04:09:24.672Z,1020.34
2017-04-04T04:10:05.269Z,1020.34
2017-04-04T04:10:45.841Z,1020.36
2017-04-04T04:11:26.429Z,1020.38
2017-04-04T04:12:07.017Z,1020.34
2017-04-04T04:12:47.601Z,1020.36
2017-04-04T04:13:28.186Z,1020.36
2017-04-04T04:14:08.760Z,1020.36
2017-04-04T04:14:49.334Z,1020.33
2017-04-04T04:15:29.916Z,1020.32
2017-04-04T04:16:10.503Z,1020.34
2017-04-04T04:16:51.075Z,1020.33
2017-04-04T04:17:31.651Z,1020.32
2017-04-04T04:18:12.230Z,1020.34
2017-04-04T04:18:52.795Z,1020.37
2017-04-04T04:19:33.382Z,1020.29
2017-04-04T04:20:13.961Z,1020.33
2017-04-04T04:20:54.548Z,1020.33
2017-04-04T04:21:35.157Z,1020.31
2017-04-04T04:22:15.731Z,1020.29
2017-04-04T04:22:56.334Z,1020.33
2017-04-04T04:23:36.924Z,1020.25
2017-04-04T04:24:17.511Z,1020.29
2017-04-04T04:24:58.082Z,1020.32
2017-04-04T04:25:38.674Z,1020.32
2017-04-04T04:26:19.254Z,1020.27
2017-04-04T04:26:59.832Z,1020.31
2017-04-04T04:27:40.415Z,1020.32
2017-04-04T04:28:20.991Z,1020.3
2017-04-04T04:29:01.575Z,1020.31
2017-04-04T04:29:42.147Z,1020.3
2017-04-04T04:30:22.716Z,1020.29
2017-04-04T04:31:03.310Z,1020.32
2017-04-04T04:31:43.902Z,1020.37
2017-04-04T04:32:24.487Z,1020.39
2017-04-04T04:33:05.073Z,1020.38
2017-04-04T04:33:45.650Z,1020.38
2017-04-04T04:34:26.223Z,1020.41
2017-04-04T04:35:06.791Z,1020.37
2017-04-04T04:35:47.373Z,1020.4
2017-04-04T04:36:27.959Z,1020.37
2017-04-04T04:37:08.546Z,1020.35
2017-04-04T04:37:49.124Z,1020.36
2017-04-04T04:38:29.707Z,1020.38
2017-04-04T04:39:10.297Z,1020.36
2017-04-04T04:39:50.878Z,1020.31
2017-04-04T04:40:31.464Z,1020.35
2017-04-04T04:41:12.041Z,1020.32
2017-04-04T04:41:52.625Z,1020.33
2017-04-04T04:42:33.214Z,1020.34
2017-04-04T04:43:13.769Z,1020.4
2017-04-04T04:43:54.376Z,1020.34
2017-04-04T04:44:34.975Z,1020.34
2017-04-04T04:45:15.547Z,1020.36
2017-04-04T04:45:56.149Z,1020.36
2017-04-04T04:46:36.728Z,1020.4
2017-04-04T04:47:17.308Z,1020.38
2017-04-04T04:47:57.885Z,1020.39
2017-04-04T04:48:38.491Z,1020.39
2017-04-04T04:49:19.095Z,1020.36
2017-04-04T04:49:59.684Z,1020.4
2017-04-04T04:50:40.253Z,1020.37
2017-04-04T04:51:20.883Z,1020.35
2017-04-04T04:52:01.497Z,1020.36
2017-04-04T04:52:42.058Z,1020.39
2017-04-04T04:53:22.636Z,1020.37
2017-04-04T04:54:03.223Z,1020.35
2017-04-04T04:54:43.796Z,1020.4
2017-04-04T04:55:24.447Z,1020.44
2017-04-04T04:56:05.019Z,1020.41
2017-04-04T04:56:45.644Z,1020.4
2017-04-04T04:57:26.314Z,1020.41
2017-04-04T04:58:06.918Z,1020.42
2017-04-04T04:58:47.492Z,1020.39
2017-04-04T04:59:28.061Z,1020.44
2017-04-04T05:00:08.629Z,1020.45
2017-04-04T05:00:49.210Z,1020.45
2017-04-04T05:01:29.806Z,1020.45
2017-04-04T05:02:10.395Z,1020.43
2017-04-04T05:02:50.963Z,1020.42
2017-04-04T05:03:31.573Z,1020.4
2017-04-04T05:04:12.124Z,1020.46
2017-04-04T05:04:52.740Z,1020.41
2017-04-04T05:05:33.305Z,1020.45
2017-04-04T05:06:13.875Z,1020.39
2017-04-04T05:06:54.451Z,1020.36
2017-04-04T05:07:35.024Z,1020.38
2017-04-04T05:08:15.610Z,1020.43
2017-04-04T05:08:56.188Z,1020.38
2017-04-04T05:09:36.776Z,1020.38
2017-04-04T05:10:17.376Z,1020.39
2017-04-04T05:10:57.940Z,1020.41
2017-04-04T05:11:38.526Z,1020.36
2017-04-04T05:12:19.104Z,1020.4
2017-04-04T05:12:59.686Z,1020.4
2017-04-04T05:13:40.276Z,1020.39
2017-04-04T05:14:20.882Z,1020.4
2017-04-04T05:15:01.447Z,1020.41
2017-04-04T05:15:42.036Z,1020.4
2017-04-04T05:16:22.625Z,1020.4
2017-04-04T05:17:03.225Z,1020.43
2017-04-04T05:17:43.788Z,1020.43
2017-04-04T05:18:24.363Z,1020.43
2017-04-04T05:19:04.954Z,1020.44
2017-04-04T05:19:45.533Z,1020.46
2017-04-04T05:20:26.183Z,1020.44
2017-04-04T05:21:06.713Z,1020.41
2017-04-04T05:21:47.283Z,1020.45
2017-04-04T05:22:27.853Z,1020.46
2017-04-04T05:23:08.421Z,1020.5
2017-04-04T05:23:48.997Z,1020.48
2017-04-04T05:24:29.586Z,1020.48
2017-04-04T05:25:10.175Z,1020.44
2017-04-04T05:25:50.754Z,1020.49
2017-04-04T05:26:31.320Z,1020.41
2017-04-04T05:27:11.901Z,1020.5
2017-04-04T05:27:52.480Z,1020.45
2017-04-04T05:28:33.059Z,1020.44
2017-04-04T05:29:13.626Z,1020.47
2017-04-04T05:29:54.216Z,1020.45
2017-04-04T05:30:34.800Z,1020.48
2017-04-04T05:31:15.377Z,1020.45
2017-04-04T05:31:55.946Z,1020.46
2017-04-04T05:32:36.532Z,1020.48
2017-04-04T05:33:17.119Z,1020.46
2017-04-04T05:33:57.722Z,1020.46
2017-04-04T05:34:38.314Z,1020.47
2017-04-04T05:35:18.873Z,1020.44
2017-04-04T05:35:59.447Z,1020.41
2017-04-04T05:36:40.017Z,1020.44
2017-04-04T05:37:20.595Z,1020.45
2017-04-04T05:38:01.168Z,1020.47
2017-04-04T05:38:41.764Z,1020.42
2017-04-04T05:39:22.346Z,1020.46
2017-04-04T05:40:02.913Z,1020.47
2017-04-04T05:40:43.495Z,1020.51
2017-04-04T05:41:24.074Z,1020.47
2017-04-04T05:42:04.633Z,1020.5
2017-04-04T05:42:45.222Z,1020.5
2017-04-04T05:43:25.790Z,1020.49
2017-04-04T05:44:06.374Z,1020.51
2017-04-04T05:44:46.959Z,1020.49
2017-04-04T05:45:27.561Z,1020.53
2017-04-04T05:46:08.141Z,1020.55
2017-04-04T05:46:48.711Z,1020.52
2017-04-04T05:47:29.310Z,1020.49
2017-04-04T05:48:09.902Z,1020.53
2017-04-04T05:48:50.470Z,1020.52
2017-04-04T05:49:31.039Z,1020.5
2017-04-04T05:50:11.711Z,1020.53
2017-04-04T05:50:52.289Z,1020.53
2017-04-04T05:51:32.883Z,1020.51
2017-04-04T05:52:13.457Z,1020.5
2017-04-04T05:52:54.035Z,1020.5
2017-04-04T05:53:34.635Z,1020.54
2017-04-04T05:54:15.231Z,1020.52
2017-04-04T05:54:55.798Z,1020.53
2017-04-04T05:55:36.391Z,1020.54
2017-04-04T05:56:16.982Z,1020.55
2017-04-04T05:56:57.568Z,1020.55
2017-04-04T05:57:38.150Z,1020.55
2017-04-04T05:58:18.730Z,1020.53
2017-04-04T05:58:59.301Z,1020.56
2017-04-04T05:59:39.911Z,1020.49
2017-04-04T06:00:20.504Z,1020.53
2017-04-04T06:01:01.105Z,1020.56
2017-04-04T06:01:41.670Z,1020.5
2017-04-04T06:02:22.254Z,1020.55
2017-04-04T06:03:02.830Z,1020.54
2017-04-04T06:03:43.407Z,1020.48
2017-04-04T06:04:23.992Z,1020.51
2017-04-04T06:05:04.569Z,1020.47
2017-04-04T06:05:45.172Z,1020.45
2017-04-04T06:06:25.746Z,1020.48
2017-04-04T06:07:06.313Z,1020.47
2017-04-04T06:07:46.887Z,1020.49
2017-04-04T06:08:27.491Z,1020.52
2017-04-04T06:09:08.108Z,1020.5
2017-04-04T06:09:48.693Z,1020.53
2017-04-04T06:10:29.274Z,1020.53
2017-04-04T06:11:09.848Z,1020.51
2017-04-04T06:11:50.430Z,1020.54
2017-04-04T06:12:31.011Z,1020.53
2017-04-04T06:13:11.580Z,1020.53
2017-04-04T06:13:52.156Z,1020.52
2017-04-04T06:14:32.765Z,1020.51
2017-04-04T06:15:13.343Z,1020.53
2017-04-04T06:15:53.934Z,1020.53
2017-04-04T06:16:34.512Z,1020.51
2017-04-04T06:17:15.096Z,1020.56
2017-04-04T06:17:55.657Z,1020.54
2017-04-04T06:18:36.223Z,1020.57
2017-04-04T06:19:16.806Z,1020.56
2017-04-04T06:19:57.401Z,1020.56
2017-04-04T06:20:38.002Z,1020.56
2017-04-04T06:21:18.571Z,1020.54
2017-04-04T06:21:59.153Z,1020.57
2017-04-04T06:22:39.740Z,1020.54
2017-04-04T06:23:20.329Z,1020.58
2017-04-04T06:24:00.929Z,1020.56
2017-04-04T06:24:41.507Z,1020.57
2017-04-04T06:25:22.082Z,1020.59
2017-04-04T06:26:02.647Z,1020.59
2017-04-04T06:26:43.236Z,1020.55
2017-04-04T06:27:23.811Z,1020.59
2017-04-04T06:28:04.423Z,1020.58
2017-04-04T06:28:45.011Z,1020.58
2017-04-04T06:29:25.592Z,1020.57
2017-04-04T06:30:06.166Z,1020.52
2017-04-04T06:30:46.730Z,1020.59
2017-04-04T06:31:27.303Z,1020.56
2017-04-04T06:32:07.874Z,1020.59
2017-04-04T06:32:48.477Z,1020.58
2017-04-04T06:33:29.053Z,1020.57
2017-04-04T06:34:09.637Z,1020.58
2017-04-04T06:34:50.207Z,1020.59
2017-04-04T06:35:30.818Z,1020.56
2017-04-04T06:36:11.389Z,1020.59
2017-04-04T06:36:51.994Z,1020.6
2017-04-04T06:37:32.576Z,1020.55
2017-04-04T06:38:13.160Z,1020.54
2017-04-04T06:38:53.744Z,1020.5
2017-04-04T06:39:34.323Z,1020.51
2017-04-04T06:40:14.899Z,1020.5
2017-04-04T06:40:55.463Z,1020.46
2017-04-04T06:41:36.050Z,1020.47
2017-04-04T06:42:16.638Z,1020.5
2017-04-04T06:42:57.213Z,1020.49
2017-04-04T06:43:37.804Z,1020.47
2017-04-04T06:44:18.400Z,1020.5
2017-04-04T06:44:58.970Z,1020.51
2017-04-04T06:45:39.568Z,1020.48
2017-04-04T06:46:20.158Z,1020.46
2017-04-04T06:47:00.733Z,1020.48
2017-04-04T06:47:41.310Z,1020.48
2017-04-04T06:48:21.876Z,1020.45
2017-04-04T06:49:02.451Z,1020.42
2017-04-04T06:49:43.024Z,1020.47
2017-04-04T06:50:23.622Z,1020.44
2017-04-04T06:51:04.198Z,1020.41
2017-04-04T06:51:44.806Z,1020.41
2017-04-04T06:52:25.384Z,1020.36
2017-04-04T06:53:05.980Z,1020.42
2017-04-04T06:53:46.567Z,1020.34
2017-04-04T06:54:27.142Z,1020.36
2017-04-04T06:55:07.754Z,1020.34
2017-04-04T06:55:48.326Z,1020.33
2017-04-04T06:56:28.897Z,1020.35
2017-04-04T06:57:09.474Z,1020.35
2017-04-04T06:57:50.063Z,1020.36
2017-04-04T06:58:30.652Z,1020.34
2017-04-04T06:59:11.235Z,1020.33
2017-04-04T06:59:51.833Z,1020.3
2017-04-04T07:00:32.400Z,1020.32
2017-04-04T07:01:12.991Z,1020.35
2017-04-04T07:01:53.599Z,1020.36
2017-04-04T07:02:34.173Z,1020.35
2017-04-04T07:03:14.758Z,1020.35
2017-04-04T07:03:55.341Z,1020.35
2017-04-04T07:04:35.957Z,1020.34
2017-04-04T07:05:16.761Z,1020.35
2017-04-04T07:05:57.331Z,1020.39
2017-04-04T07:06:37.902Z,1020.43
2017-04-04T07:07:18.496Z,1020.41
2017-04-04T07:07:59.301Z,1020.4
2017-04-04T07:08:39.927Z,1020.41
2017-04-04T07:09:20.516Z,1020.36
2017-04-04T07:10:01.119Z,1020.39
2017-04-04T07:10:41.720Z,1020.38
2017-04-04T07:11:22.306Z,1020.38
2017-04-04T07:12:02.941Z,1020.39
2017-04-04T07:12:43.778Z,1020.37
2017-04-04T07:13:24.346Z,1020.39
2017-04-04T07:14:04.963Z,1020.38
2017-04-04T07:14:45.780Z,1020.39
2017-04-04T07:15:26.416Z,1020.39
2017-04-04T07:16:07.008Z,1020.4
2017-04-04T07:16:47.565Z,1020.36
2017-04-04T07:17:28.142Z,1020.37
2017-04-04T07:18:08.777Z,1020.39
2017-04-04T07:18:49.518Z,1020.35
2017-04-04T07:19:30.114Z,1020.36
2017-04-04T07:20:10.707Z,1020.32
2017-04-04T07:20:51.298Z,1020.32
2017-04-04T07:21:31.928Z,1020.36
2017-04-04T07:22:12.498Z,1020.32
2017-04-04T07:22:53.072Z,1020.34
2017-04-04T07:23:34.229Z,1020.31
2017-04-04T07:24:14.821Z,1020.29
2017-04-04T07:24:55.398Z,1020.3
2017-04-04T07:25:36.069Z,1020.28
2017-04-04T07:26:16.647Z,1020.31
2017-04-04T07:26:57.237Z,1020.31
2017-04-04T07:27:37.841Z,1020.33
2017-04-04T07:28:18.467Z,1020.35
2017-04-04T07:28:59.047Z,1020.32
2017-04-04T07:29:40.558Z,1020.38
2017-04-04T07:30:21.896Z,1020.36
2017-04-04T07:31:02.487Z,1020.38
2017-04-04T07:31:43.060Z,1020.32
2017-04-04T07:32:23.650Z,1020.38
2017-04-04T07:33:04.245Z,1020.39
2017-04-04T07:33:44.841Z,1020.35
2017-04-04T07:34:25.433Z,1020.39
2017-04-04T07:35:06.015Z,1020.36
2017-04-04T07:35:46.596Z,1020.34
2017-04-04T07:36:27.215Z,1020.38
2017-04-04T07:37:07.810Z,1020.36
2017-04-04T07:37:48.406Z,1020.33
2017-04-04T07:38:29.001Z,1020.36
2017-04-04T07:39:09.608Z,1020.37
2017-04-04T07:39:50.165Z,1020.39
2017-04-04T07:40:30.759Z,1020.38
2017-04-04T07:41:11.331Z,1020.41
2017-04-04T07:41:51.926Z,1020.39
2017-04-04T07:42:32.518Z,1020.4
2017-04-04T07:43:13.118Z,1020.43
2017-04-04T07:43:53.721Z,1020.4
2017-04-04T07:44:34.365Z,1020.41
2017-04-04T07:45:14.983Z,1020.45
2017-04-04T07:45:55.564Z,1020.45
2017-04-04T07:46:36.149Z,1020.45
2017-04-04T07:47:16.727Z,1020.45
2017-04-04T07:47:57.328Z,1020.42
2017-04-04T07:48:37.990Z,1020.44
2017-04-04T07:49:18.587Z,1020.51
2017-04-04T07:49:59.205Z,1020.5
2017-04-04T07:50:39.789Z,1020.55
2017-04-04T07:51:20.385Z,1020.52
2017-04-04T07:52:00.995Z,1020.5
2017-04-04T07:52:41.642Z,1020.48
2017-04-04T07:53:22.356Z,1020.44
2017-04-04T07:54:02.951Z,1020.43
2017-04-04T07:54:43.591Z,1020.43
2017-04-04T07:55:24.189Z,1020.48
2017-04-04T07:56:04.766Z,1020.51
2017-04-04T07:56:45.357Z,1020.49
2017-04-04T07:57:25.955Z,1020.43
2017-04-04T07:58:06.560Z,1020.42
2017-04-04T07:58:47.160Z,1020.43
2017-04-04T07:59:27.780Z,1020.43
2017-04-04T08:00:08.377Z,1020.42
2017-04-04T08:00:48.966Z,1020.44
2017-04-04T08:01:29.561Z,1020.42
2017-04-04T08:02:10.150Z,1020.4
2017-04-04T08:02:50.812Z,1020.35
2017-04-04T08:03:31.402Z,1020.38
2017-04-04T08:04:12.004Z,1020.36
2017-04-04T08:04:52.585Z,1020.39
2017-04-04T08:05:33.203Z,1020.39
2017-04-04T08:06:13.785Z,1020.38
2017-04-04T08:06:54.389Z,1020.42
2017-04-04T08:07:34.975Z,1020.42
2017-04-04T08:08:15.639Z,1020.45
2017-04-04T08:08:56.240Z,1020.48
2017-04-04T08:09:36.813Z,1020.45
2017-04-04T08:10:17.396Z,1020.44
2017-04-04T08:10:57.957Z,1020.46
2017-04-04T08:11:38.542Z,1020.49
2017-04-04T08:12:19.133Z,1020.46
2017-04-04T08:12:59.712Z,1020.48
2017-04-04T08:13:40.405Z,1020.48
2017-04-04T08:14:20.991Z,1020.48
2017-04-04T08:15:01.591Z,1020.48
2017-04-04T08:15:42.186Z,1020.48
2017-04-04T08:16:22.777Z,1020.46